Time;durP1;ratioP1;P1;durP2;ratioP2;P2;SDS_P1;SDS_P2;PMS_P1;PMS_P2;Temp;Humidity;BMP_temperature;BMP_pressure;BME280_temperature;BME280_humidity;BME280_pressure;Samples;Min_cycle;Max_cycle;Signal;HPM_P1;HPM_P2
2022/03/12 00:00:21;;;;;;;5.32;2.13;;;19.60;44.00;;;;;;4920070;29;20047;-87
2022/03/12 00:03:15;;;;;;;6.78;2.38;;;19.30;43.50;;;;;;4919478;29;20540;-86
2022/03/12 00:05:55;;;;;;;4.57;2.08;;;19.40;43.50;;;;;;4919718;29;20059;-86
2022/03/12 00:08:44;;;;;;;5.32;2.17;;;20.80;44.30;;;;;;4919667;29;20047;-86
2022/03/12 00:11:27;;;;;;;5.13;2.10;;;19.30;43.40;;;;;;4918963;29;20051;-86
2022/03/12 00:17:47;;;;;;;6.25;2.25;;;18.40;43.00;;;;;;4955272;29;20038;-86
2022/03/12 00:20:27;;;;;;;4.03;1.83;;;20.90;44.70;;;;;;4955958;29;20039;-86
2022/03/12 00:22:58;;;;;;;4.82;2.10;;;20.70;44.50;;;;;;4936856;29;20093;-86
2022/03/12 00:25:32;;;;;;;4.68;2.00;;;20.80;45.40;;;;;;4955221;29;20047;-86
2022/03/12 00:28:05;;;;;;;4.50;1.90;;;17.50;42.90;;;;;;4955562;29;20480;-86
2022/03/12 00:30:31;;;;;;;5.68;2.03;;;19.20;43.60;;;;;;4955173;29;20047;-86
2022/03/12 00:32:57;;;;;;;5.05;2.42;;;19.20;43.80;;;;;;4938328;29;20059;-86
2022/03/12 00:35:26;;;;;;;5.03;1.83;;;19.20;43.50;;;;;;4955621;29;20055;-86
2022/03/12 00:37:54;;;;;;;4.78;1.80;;;20.60;44.30;;;;;;4937752;29;20055;-86
2022/03/12 00:40:45;;;;;;;4.78;2.17;;;19.60;43.80;;;;;;4955318;29;20407;-86
2022/03/12 00:43:11;;;;;;;4.60;1.90;;;18.40;43.10;;;;;;4938289;29;20051;-86
2022/03/12 00:45:42;;;;;;;3.63;1.60;;;19.20;43.60;;;;;;4954682;29;20047;-86
2022/03/12 00:48:08;;;;;;;5.07;1.98;;;20.70;44.70;;;;;;4937685;29;20050;-87
2022/03/12 01:43:05;;;;;;;4.97;1.73;;;19.20;43.70;;;;;;4916464;29;20122;-86
2022/03/12 01:45:31;;;;;;;4.65;2.20;;;19.90;44.20;;;;;;4917233;29;20047;-85
2022/03/12 01:51:46;;;;;;;4.72;1.80;;;20.30;44.50;;;;;;4913379;29;20207;-86
2022/03/12 01:54:23;;;;;;;3.88;1.85;;;17.30;42.70;;;;;;4917677;29;20047;-87
2022/03/12 01:56:49;;;;;;;4.10;1.42;;;19.10;43.60;;;;;;4917223;29;20079;-86
2022/03/12 01:59:17;;;;;;;4.32;1.70;;;19.10;43.60;;;;;;4917762;29;20051;-86
2022/03/12 02:01:51;;;;;;;4.30;2.08;;;19.10;43.70;;;;;;4917079;29;20056;-85
2022/03/12 02:04:20;;;;;;;4.43;1.88;;;19.10;43.60;;;;;;4917652;29;20124;-87
2022/03/12 02:06:46;;;;;;;4.10;1.80;;;19.00;43.60;;;;;;4917908;29;20066;-87
2022/03/12 02:09:14;;;;;;;3.72;1.42;;;19.10;43.70;;;;;;4916410;29;20055;-87
2022/03/12 02:11:40;;;;;;;3.83;1.85;;;19.00;43.60;;;;;;4917347;29;20051;-86
2022/03/12 02:14:15;;;;;;;3.75;1.83;;;19.10;43.70;;;;;;4917830;29;20118;-86
2022/03/12 02:16:55;;;;;;;4.85;1.90;;;20.30;44.30;;;;;;4916960;29;20052;-86
2022/03/12 02:19:21;;;;;;;3.95;1.80;;;19.30;43.80;;;;;;4917652;29;20134;-86
2022/03/12 02:21:52;;;;;;;4.45;1.60;;;19.00;43.60;;;;;;4916984;29;20047;-87
2022/03/12 02:24:22;;;;;;;4.85;1.55;;;19.00;43.60;;;;;;4916770;29;20064;-86
2022/03/12 02:26:47;;;;;;;3.75;1.80;;;19.00;43.60;;;;;;4916155;29;20044;-87
2022/03/12 02:29:19;;;;;;;3.22;1.45;;;19.00;43.60;;;;;;4917669;29;20096;-86
2022/03/12 02:31:46;;;;;;;;;;;19.00;43.60;;;;;;4917048;29;20102;-87
2022/03/12 02:34:12;;;;;;;3.47;1.50;;;19.00;43.60;;;;;;4917578;29;20374;-86
2022/03/12 02:36:38;;;;;;;3.42;1.58;;;19.00;43.60;;;;;;4917141;29;20044;-86
2022/03/12 02:39:05;;;;;;;4.45;1.70;;;19.00;43.60;;;;;;4916277;29;20059;-86
2022/03/12 02:41:31;;;;;;;3.60;1.75;;;19.00;43.60;;;;;;4928596;29;20385;-89
2022/03/12 02:44:00;;;;;;;3.50;1.60;;;19.00;43.60;;;;;;4935165;29;20059;-87
2022/03/12 02:46:31;;;;;;;3.17;1.40;;;19.00;43.60;;;;;;4953218;29;20158;-86
2022/03/12 02:48:57;;;;;;;3.90;1.52;;;19.00;43.60;;;;;;4935928;29;20510;-86
2022/03/12 02:51:29;;;;;;;3.45;1.50;;;19.90;44.10;;;;;;4935203;29;20035;-87
2022/03/12 02:53:56;;;;;;;4.10;1.60;;;18.90;43.60;;;;;;4953383;29;20055;-86
2022/03/12 02:56:22;;;;;;;4.63;1.42;;;18.90;43.60;;;;;;4935913;29;20051;-86
2022/03/12 02:58:48;;;;;;;3.53;1.20;;;18.90;43.60;;;;;;4935036;29;20698;-86
2022/03/12 03:01:16;;;;;;;3.75;1.40;;;18.90;43.60;;;;;;4935604;29;20302;-87
2022/03/12 03:03:42;;;;;;;3.28;1.40;;;18.90;43.60;;;;;;4935667;29;20047;-87
2022/03/12 03:06:09;;;;;;;3.92;1.40;;;18.90;43.60;;;;;;4952244;29;20491;-87
2022/03/12 03:08:39;;;;;;;4.05;1.50;;;18.90;43.60;;;;;;4935997;29;20082;-87
2022/03/12 03:11:16;;;;;;;4.35;1.83;;;18.90;43.60;;;;;;4935492;29;20121;-87
2022/03/12 03:13:44;;;;;;;3.90;1.50;;;18.90;43.60;;;;;;4935145;29;20059;-87
2022/03/12 03:16:21;;;;;;;4.15;1.88;;;18.90;43.60;;;;;;4935423;29;20039;-87
2022/03/12 03:18:54;;;;;;;3.80;1.42;;;18.90;43.60;;;;;;4935413;29;20456;-87
2022/03/12 03:21:24;;;;;;;3.83;1.60;;;19.20;43.80;;;;;;4934899;29;20055;-87
2022/03/12 03:23:49;;;;;;;3.50;1.70;;;18.90;43.60;;;;;;4935462;29;20051;-87
2022/03/12 03:26:40;;;;;;;2.90;1.23;;;18.90;43.70;;;;;;4951972;29;20042;-87
2022/03/12 03:29:06;;;;;;;2.85;1.17;;;18.90;43.60;;;;;;4909068;29;20083;-87
2022/03/12 03:31:31;;;;;;;3.47;1.42;;;20.40;44.40;;;;;;4935099;29;20100;-87
2022/03/12 03:33:57;;;;;;;4.07;1.48;;;18.90;43.60;;;;;;4938677;29;20109;-87
2022/03/12 03:36:25;;;;;;;2.75;1.30;;;19.80;44.10;;;;;;4939655;29;20050;-87
2022/03/12 03:38:53;;;;;;;2.72;1.20;;;18.90;43.60;;;;;;4939269;29;20055;-87
2022/03/12 03:41:19;;;;;;;3.17;1.33;;;18.90;43.60;;;;;;4955512;29;20146;-87
2022/03/12 03:43:46;;;;;;;4.38;1.52;;;19.10;43.70;;;;;;4939385;29;20049;-87
2022/03/12 03:46:15;;;;;;;3.10;1.40;;;18.90;43.60;;;;;;4939355;29;20047;-87
2022/03/12 03:48:41;;;;;;;3.10;1.20;;;18.90;43.60;;;;;;4938504;29;20047;-88
2022/03/12 03:51:06;;;;;;;3.28;1.48;;;18.90;43.60;;;;;;4938992;29;20092;-87
2022/03/12 03:53:32;;;;;;;3.50;1.80;;;18.90;43.60;;;;;;4939244;29;20126;-87
2022/03/12 03:56:01;;;;;;;3.47;1.50;;;18.90;43.60;;;;;;4938783;29;20114;-87
2022/03/12 03:58:27;;;;;;;3.25;1.40;;;18.90;43.60;;;;;;4938669;29;20106;-87
2022/03/12 04:00:53;;;;;;;3.17;1.33;;;19.20;43.80;;;;;;4939457;29;20039;-87
2022/03/12 04:03:19;;;;;;;3.08;1.35;;;18.90;43.70;;;;;;4938241;29;20054;-87
2022/03/12 04:05:47;;;;;;;3.70;1.52;;;18.80;43.60;;;;;;4955862;29;20392;-87
2022/03/12 04:08:13;;;;;;;4.47;1.50;;;18.60;43.40;;;;;;4938440;29;20381;-87
2022/03/12 04:10:39;;;;;;;3.63;1.20;;;18.80;43.60;;;;;;4938033;29;20059;-87
2022/03/12 04:13:11;;;;;;;3.72;1.20;;;18.80;43.60;;;;;;4956076;29;20534;-88
2022/03/12 04:15:39;;;;;;;3.60;1.52;;;18.80;44.10;;;;;;4938006;29;20403;-87
2022/03/12 04:18:06;;;;;;;2.80;1.20;;;18.80;43.60;;;;;;4938857;29;20129;-87
2022/03/12 04:20:34;;;;;;;2.55;1.40;;;18.80;43.60;;;;;;4938426;29;20093;-87
2022/03/12 04:23:00;;;;;;;3.40;1.50;;;18.80;43.60;;;;;;4937940;29;20086;-88
2022/03/12 04:25:26;;;;;;;3.22;1.40;;;18.80;43.60;;;;;;4938380;29;20082;-88
2022/03/12 04:27:52;;;;;;;3.45;1.60;;;18.80;43.60;;;;;;4955954;29;20071;-88
2022/03/12 04:30:18;;;;;;;3.60;1.40;;;18.80;43.60;;;;;;4937484;29;20074;-87
2022/03/12 04:32:44;;;;;;;4.22;1.70;;;18.80;43.60;;;;;;4938371;29;20104;-88
2022/03/12 04:35:12;;;;;;;3.28;1.50;;;18.80;43.60;;;;;;4938435;29;20519;-88
2022/03/12 04:37:38;;;;;;;3.80;1.45;;;18.80;43.60;;;;;;4954722;29;20051;-88
2022/03/12 04:40:10;;;;;;;3.03;1.40;;;18.80;43.50;;;;;;4938000;29;20055;-84
2022/03/12 04:42:40;;;;;;;3.08;1.40;;;18.80;43.60;;;;;;4938193;28;20048;-86
2022/03/12 04:45:08;;;;;;;2.85;1.10;;;18.80;43.60;;;;;;4937776;29;20078;-87
2022/03/12 04:47:34;;;;;;;3.13;1.30;;;18.80;43.60;;;;;;4938042;29;20146;-86
2022/03/12 04:50:00;;;;;;;3.60;1.50;;;18.70;43.50;;;;;;4937784;29;20142;-86
2022/03/12 04:52:25;;;;;;;2.65;1.20;;;18.70;43.50;;;;;;4954456;29;20039;-86
2022/03/12 04:54:51;;;;;;;3.05;1.35;;;18.90;43.60;;;;;;4937856;29;20759;-87
2022/03/12 04:57:16;;;;;;;2.97;1.17;;;18.70;43.50;;;;;;4938125;29;20247;-86
2022/03/12 04:59:42;;;;;;;2.80;1.35;;;18.70;43.50;;;;;;4937324;29;20047;-86
2022/03/12 05:02:11;;;;;;;2.97;1.48;;;18.70;43.50;;;;;;4937401;29;20047;-86
2022/03/12 05:04:39;;;;;;;2.55;1.10;;;18.70;43.50;;;;;;4953747;29;20055;-85
2022/03/12 05:07:09;;;;;;;3.00;1.20;;;18.80;43.60;;;;;;4937545;29;20403;-86
2022/03/12 05:09:35;;;;;;;2.70;1.33;;;18.70;43.50;;;;;;4937706;29;20051;-86
2022/03/12 05:12:05;;;;;;;3.67;1.30;;;18.70;43.50;;;;;;4936284;29;20074;-86
2022/03/12 05:14:35;;;;;;;2.72;1.23;;;18.70;43.50;;;;;;4954913;29;20055;-85
2022/03/12 05:17:05;;;;;;;2.78;1.20;;;18.70;43.50;;;;;;4937680;29;20094;-86
2022/03/12 05:19:37;;;;;;;3.33;1.10;;;18.70;43.50;;;;;;4921205;29;20055;-86
2022/03/12 05:22:07;;;;;;;4.03;1.55;;;18.70;43.50;;;;;;4937650;29;20035;-86
2022/03/12 05:24:33;;;;;;;3.65;1.30;;;18.70;43.50;;;;;;4955049;29;20054;-85
2022/03/12 05:26:59;;;;;;;3.28;1.40;;;18.70;43.50;;;;;;4936654;29;20047;-87
2022/03/12 05:29:25;;;;;;;2.42;1.13;;;18.70;43.50;;;;;;4954680;29;20054;-86
2022/03/12 05:31:52;;;;;;;2.83;1.35;;;18.70;43.50;;;;;;4936869;29;20055;-86
2022/03/12 05:34:21;;;;;;;3.10;1.30;;;18.70;43.50;;;;;;4953583;29;20050;-87
2022/03/12 05:36:47;;;;;;;3.17;1.33;;;18.70;43.50;;;;;;4954564;29;20058;-87
2022/03/12 05:39:12;;;;;;;3.10;1.20;;;18.70;44.20;;;;;;4937319;29;20051;-87
2022/03/12 05:41:38;;;;;;;2.40;1.00;;;18.70;43.60;;;;;;4936081;29;20089;-87
2022/03/12 05:44:07;;;;;;;3.50;1.00;;;19.00;43.70;;;;;;4936884;29;20055;-87
2022/03/12 05:46:32;;;;;;;2.25;1.02;;;18.70;43.60;;;;;;4937226;29;20054;-87
2022/03/12 05:48:58;;;;;;;3.85;1.40;;;18.70;43.60;;;;;;4936450;29;20051;-87
2022/03/12 05:51:29;;;;;;;2.70;1.40;;;18.70;43.60;;;;;;4937236;29;20055;-87
2022/03/12 05:53:54;;;;;;;2.63;1.20;;;18.70;43.60;;;;;;4936345;29;20122;-87
2022/03/12 06:00:16;;;;;;;3.53;1.50;;;18.30;43.40;;;;;;4954063;29;20110;-86
2022/03/12 06:02:58;;;;;;;3.05;1.23;;;18.60;43.70;;;;;;4953157;29;20051;-86
2022/03/12 06:12:49;;;;;;;2.67;1.27;;;18.70;43.60;;;;;;4859756;29;20053;-87
2022/03/12 06:18:56;;;;;;;2.67;1.17;;;18.60;43.50;;;;;;4875414;29;20073;-86
2022/03/12 06:25:27;;;;;;;2.30;1.30;;;17.60;43.00;;;;;;4804989;29;20069;-85
2022/03/12 06:28:21;;;;;;;2.22;1.05;;;19.00;44.10;;;;;;4859864;29;20688;-86
2022/03/12 06:31:33;;;;;;;2.97;1.30;;;17.60;43.00;;;;;;4869800;29;20064;-85
2022/03/12 06:33:59;;;;;;;2.70;1.27;;;17.40;42.90;;;;;;4855798;29;20057;-86
2022/03/12 06:37:18;;;;;;;1.70;1.00;;;17.70;43.30;;;;;;4840700;29;20290;-86
2022/03/12 06:39:43;;;;;;;2.30;1.10;;;18.60;43.60;;;;;;4949046;23;20056;-86
2022/03/12 06:42:09;;;;;;;3.08;1.30;;;18.60;43.60;;;;;;4913487;29;20107;-86
2022/03/12 06:44:37;;;;;;;1.58;0.82;;;18.60;43.60;;;;;;4912846;29;20055;-86
2022/03/12 06:47:04;;;;;;;2.30;1.00;;;18.60;43.60;;;;;;4917635;29;20052;-86
2022/03/12 06:49:29;;;;;;;2.38;1.10;;;18.60;43.60;;;;;;4926467;29;20098;-86
2022/03/12 06:51:58;;;;;;;2.72;1.08;;;18.60;43.60;;;;;;4917376;29;20060;-86
2022/03/12 06:54:26;;;;;;;2.10;0.98;;;18.60;43.60;;;;;;4932370;29;20092;-85
2022/03/12 06:56:55;;;;;;;2.65;1.10;;;18.60;43.60;;;;;;4931621;29;20142;-85
2022/03/12 06:59:21;;;;;;;2.78;1.33;;;18.60;43.60;;;;;;4931574;29;20429;-86
2022/03/12 07:01:47;;;;;;;2.53;1.10;;;18.60;43.60;;;;;;4932586;29;20059;-86
2022/03/12 07:04:15;;;;;;;3.25;1.25;;;18.50;43.60;;;;;;4913886;29;20044;-86
2022/03/12 07:06:41;;;;;;;2.75;1.25;;;19.30;44.00;;;;;;4921014;29;20082;-86
2022/03/12 07:09:06;;;;;;;2.65;1.20;;;18.60;43.70;;;;;;4933480;29;20043;-86
2022/03/12 07:11:32;;;;;;;2.67;1.02;;;18.50;43.60;;;;;;4931592;29;20086;-86
2022/03/12 07:13:59;;;;;;;2.60;1.17;;;18.60;43.70;;;;;;4916488;29;20138;-86
2022/03/12 07:16:24;;;;;;;1.90;1.02;;;18.60;43.70;;;;;;4932164;29;20055;-85
2022/03/12 07:18:54;;;;;;;2.35;1.00;;;18.60;43.70;;;;;;4931411;29;20044;-86
2022/03/12 07:21:23;;;;;;;2.38;1.10;;;18.50;43.60;;;;;;4933366;29;20518;-86
2022/03/12 07:23:49;;;;;;;2.20;1.17;;;18.50;43.70;;;;;;4931927;29;20540;-86
2022/03/12 07:30:00;;;;;;;2.35;1.10;;;18.50;43.60;;;;;;4932765;29;20508;-86
2022/03/12 07:32:55;;;;;;;2.60;1.20;;;16.80;42.80;;;;;;4931129;29;20058;-87
2022/03/12 07:35:39;;;;;;;3.15;1.10;;;18.60;43.70;;;;;;4931477;29;20079;-83
2022/03/12 07:38:13;;;;;;;3.35;1.15;;;18.60;44.10;;;;;;4933117;29;20519;-84
2022/03/12 07:41:05;;;;;;;2.65;1.25;;;17.50;43.20;;;;;;4930745;29;20535;-85
2022/03/12 07:43:42;;;;;;;2.00;1.17;;;18.90;43.90;;;;;;4913710;29;20857;-85
2022/03/12 07:46:32;;;;;;;2.30;1.23;;;19.70;45.00;;;;;;4933464;29;20062;-85
2022/03/12 07:48:58;;;;;;;2.83;1.10;;;18.50;43.70;;;;;;4932086;29;20552;-88
2022/03/12 07:51:23;;;;;;;2.28;1.10;;;18.10;43.70;;;;;;4932079;29;20138;-88
2022/03/12 07:54:07;;;;;;;2.17;0.98;;;18.20;43.60;;;;;;4931763;29;20139;-88
2022/03/12 08:00:17;;;;;;;2.70;1.10;;;18.90;44.00;;;;;;5140457;23;20067;-86
2022/03/12 08:10:10;;;;;;;3.30;1.05;;;18.70;43.90;;;;;;4951230;29;20108;-87
2022/03/12 08:13:04;;;;;;;3.95;1.00;;;18.50;43.70;;;;;;4930804;29;20139;-87
2022/03/12 08:18:23;;;;;;;2.53;1.10;;;17.70;43.40;;;;;;5241928;23;20059;-86
2022/03/12 08:21:26;;;;;;;2.65;1.10;;;18.60;43.90;;;;;;4922643;29;20123;-86
2022/03/12 08:23:58;;;;;;;2.20;1.00;;;18.60;43.80;;;;;;4918117;29;20039;-86
2022/03/12 08:26:24;;;;;;;3.15;1.25;;;17.90;43.60;;;;;;4936464;29;20142;-87
2022/03/12 08:28:53;;;;;;;2.40;1.00;;;19.30;44.20;;;;;;4918141;29;20051;-86
2022/03/12 08:33:47;;;;;;;3.00;0.98;;;18.50;43.80;;;;;;4953761;29;20055;-85
2022/03/12 08:36:35;;;;;;;2.47;1.02;;;19.70;44.70;;;;;;4921720;29;20058;-86
2022/03/12 08:45:41;;;;;;;3.50;1.50;;;18.00;43.50;;;;;;4937304;29;20043;-83
2022/03/12 08:48:48;;;;;;;2.78;1.13;;;18.40;43.80;;;;;;4936745;29;20082;-85
2022/03/12 08:51:28;;;;;;;3.30;1.30;;;18.40;43.80;;;;;;4924446;29;20059;-82
2022/03/12 08:54:36;;;;;;;9.32;2.83;;;18.80;44.00;;;;;;4928667;29;20577;-85
2022/03/12 08:57:29;;;;;;;8.27;2.83;;;18.00;43.10;;;;;;4875765;29;20161;-85
2022/03/12 09:00:07;;;;;;;9.88;2.30;;;18.70;44.10;;;;;;4841694;29;20161;-81
2022/03/12 09:02:33;;;;;;;3.92;1.80;;;18.60;43.50;;;;;;4852554;29;20104;-81
2022/03/12 09:05:09;;;;;;;4.65;1.70;;;18.70;43.40;;;;;;4854904;29;20064;-81
2022/03/12 09:11:39;;;;;;;;;;;;;;;;;;;;;
2022/03/12 09:14:14;;;;;;;6.85;2.25;;;18.80;43.50;;;;;;4918812;29;20099;-84
2022/03/12 09:23:47;;;;;;;5.35;2.38;;;19.50;43.90;;;;;;5059421;23;20067;-84
2022/03/12 09:26:13;;;;;;;5.10;2.40;;;18.80;43.50;;;;;;4936212;29;20054;-84
2022/03/12 09:28:45;;;;;;;8.60;2.38;;;18.80;43.50;;;;;;4937118;29;20051;-84
2022/03/12 09:35:05;;;;;;;4.05;2.00;;;18.60;43.30;;;;;;4933498;29;20063;-84
2022/03/12 09:37:43;;;;;;;5.88;2.38;;;17.70;42.90;;;;;;4933907;29;20055;-83
2022/03/12 09:40:17;;;;;;;6.03;2.10;;;18.90;43.50;;;;;;4933258;29;20048;-84
2022/03/12 09:42:45;;;;;;;5.75;2.30;;;20.10;44.00;;;;;;4930832;29;20044;-83
2022/03/12 09:45:17;;;;;;;5.40;1.95;;;18.60;43.30;;;;;;4931704;29;20087;-83
2022/03/12 09:47:43;;;;;;;6.88;2.15;;;19.70;44.10;;;;;;4984121;23;20106;-83
2022/03/12 09:50:09;;;;;;;6.10;1.90;;;18.90;44.10;;;;;;4935214;29;20538;-83
2022/03/12 10:04:44;;;;;;;5.40;1.90;;;18.90;43.30;;;;;;5843620;23;20117;-83
2022/03/12 10:07:10;;;;;;;4.70;2.22;;;20.00;43.90;;;;;;4934105;29;20523;-83
2022/03/12 10:09:36;;;;;;;6.05;2.03;;;18.90;43.30;;;;;;4952806;29;20063;-83
2022/03/12 10:12:05;;;;;;;5.15;2.13;;;19.40;43.50;;;;;;4936530;29;20063;-83
2022/03/12 10:14:32;;;;;;;6.15;2.40;;;18.90;43.30;;;;;;4953046;29;20043;-83
2022/03/12 10:17:00;;;;;;;4.03;2.03;;;18.90;43.30;;;;;;4928009;29;20063;-81
2022/03/12 10:24:49;;;;;;;6.13;2.70;;;18.90;43.70;;;;;;5876891;23;20051;-83
2022/03/12 10:32:16;;;;;;;4.70;1.90;;;18.00;42.60;;;;;;4874292;29;20052;-79
2022/03/12 10:34:59;;;;;;;6.20;2.28;;;19.30;43.40;;;;;;4874741;29;20064;-79
2022/03/12 10:38:18;;;;;;;4.13;1.95;;;19.00;43.10;;;;;;4846590;29;20928;-79
2022/03/12 11:00:03;;;;;;;4.45;1.85;;;19.50;43.80;;;;;;4855811;29;20044;-78
2022/03/12 11:34:19;;;;;;;6.25;2.00;;;19.20;44.20;;;;;;4930832;29;20107;-81
2022/03/12 11:36:57;;;;;;;3.88;1.95;;;19.60;44.40;;;;;;4932150;29;20087;-83
2022/03/12 11:39:50;;;;;;;4.30;1.95;;;17.00;44.10;;;;;;4915102;29;20092;-84
2022/03/12 11:42:23;;;;;;;4.55;2.28;;;19.10;44.20;;;;;;4916248;29;20074;-83
2022/03/12 11:44:54;;;;;;;4.80;1.80;;;19.20;44.20;;;;;;4915760;29;20135;-84
2022/03/12 11:47:24;;;;;;;5.00;1.83;;;19.20;44.30;;;;;;4914913;29;20071;-83
2022/03/12 11:49:50;;;;;;;3.75;1.90;;;19.30;44.30;;;;;;4915933;29;20054;-83
2022/03/12 11:52:16;;;;;;;3.65;1.90;;;19.20;44.30;;;;;;4896956;29;20096;-84
2022/03/12 11:54:43;;;;;;;3.85;2.05;;;19.20;44.30;;;;;;4899500;29;20056;-84
2022/03/12 11:57:16;;;;;;;3.83;1.98;;;19.20;44.30;;;;;;4918147;29;20096;-84
2022/03/12 11:59:44;;;;;;;3.78;1.80;;;19.20;44.40;;;;;;4900732;29;20122;-83
2022/03/12 12:02:32;;;;;;;3.83;2.00;;;19.40;44.40;;;;;;4899754;29;20044;-84
2022/03/12 12:05:03;;;;;;;4.32;1.90;;;19.20;44.30;;;;;;4900407;29;20048;-85
2022/03/12 12:07:36;;;;;;;2.63;1.35;;;19.20;44.30;;;;;;4916821;29;20051;-84
2022/03/12 12:10:12;;;;;;;4.57;1.95;;;19.20;44.30;;;;;;4900916;29;20831;-84
2022/03/12 12:12:37;;;;;;;3.78;1.90;;;19.20;44.30;;;;;;4917869;29;20048;-81
2022/03/12 12:15:04;;;;;;;4.15;1.85;;;19.20;44.40;;;;;;4900005;29;20642;-83
2022/03/12 12:17:35;;;;;;;3.97;1.70;;;19.20;44.40;;;;;;4899718;29;20115;-83
2022/03/12 12:20:02;;;;;;;3.28;1.80;;;19.20;44.40;;;;;;4916410;29;20058;-84
2022/03/12 12:22:28;;;;;;;4.32;1.90;;;19.30;44.50;;;;;;4918734;29;20158;-81
2022/03/12 12:24:55;;;;;;;4.43;1.80;;;19.20;44.70;;;;;;4919076;29;20139;-83
2022/03/12 12:27:23;;;;;;;3.55;1.40;;;19.20;44.40;;;;;;4909821;29;20048;-83
2022/03/12 12:29:50;;;;;;;4.05;1.58;;;19.20;44.50;;;;;;4905881;29;20055;-83
2022/03/12 12:32:18;;;;;;;2.97;1.63;;;19.20;44.40;;;;;;4904029;29;20203;-81
2022/03/12 12:35:13;;;;;;;2.95;1.63;;;19.20;44.50;;;;;;4899002;29;20776;-80
2022/03/12 12:38:07;;;;;;;4.75;1.65;;;19.20;44.50;;;;;;4900728;29;20094;-81
2022/03/12 12:40:47;;;;;;;2.67;1.63;;;19.20;44.50;;;;;;4883086;29;20064;-81
2022/03/12 12:43:14;;;;;;;4.53;2.00;;;19.20;44.50;;;;;;4899438;29;20044;-81
2022/03/12 12:45:51;;;;;;;3.28;1.80;;;20.20;45.00;;;;;;4900013;29;20044;-83
2022/03/12 12:48:27;;;;;;;3.85;1.98;;;20.40;45.10;;;;;;4899869;29;20174;-83
2022/03/12 12:51:11;;;;;;;4.93;1.80;;;19.20;44.40;;;;;;4899504;29;20048;-83
2022/03/12 12:53:38;;;;;;;3.60;1.42;;;19.30;44.40;;;;;;4900473;29;20060;-83
2022/03/12 12:56:33;;;;;;;3.15;1.20;;;19.20;44.30;;;;;;4899073;29;20130;-83
2022/03/12 12:58:59;;;;;;;3.35;1.63;;;19.30;44.30;;;;;;4903570;29;20063;-82
2022/03/12 13:01:43;;;;;;;3.30;1.73;;;19.30;44.40;;;;;;4905179;29;20052;-82
2022/03/12 13:04:10;;;;;;;3.08;1.55;;;19.30;44.30;;;;;;4920295;29;20056;-82
2022/03/12 13:06:36;;;;;;;2.83;1.40;;;19.30;44.20;;;;;;4925245;29;20047;-81
2022/03/12 13:09:11;;;;;;;2.67;1.50;;;19.40;44.30;;;;;;4912707;29;20059;-82
2022/03/12 13:11:57;;;;;;;3.65;1.23;;;19.40;44.20;;;;;;4914035;29;20090;-81
2022/03/12 13:14:30;;;;;;;3.03;1.52;;;19.40;44.20;;;;;;4924499;29;20135;-81
2022/03/12 13:17:02;;;;;;;4.00;1.70;;;19.40;44.20;;;;;;4931356;29;20407;-81
2022/03/12 13:19:32;;;;;;;3.03;1.55;;;19.40;44.20;;;;;;4916577;29;20058;-82
2022/03/12 13:21:58;;;;;;;3.30;1.20;;;19.40;44.20;;;;;;4916647;29;20051;-81
2022/03/12 13:24:24;;;;;;;2.60;1.27;;;20.70;44.90;;;;;;4910702;29;20063;-81
2022/03/12 13:26:50;;;;;;;2.33;1.17;;;19.40;44.20;;;;;;4895811;29;20048;-82
2022/03/12 13:29:20;;;;;;;3.20;1.27;;;19.40;44.20;;;;;;4916232;29;20751;-81
2022/03/12 13:31:46;;;;;;;2.80;1.25;;;19.40;44.10;;;;;;4933585;29;20122;-82
2022/03/12 13:34:12;;;;;;;2.58;1.10;;;19.80;44.30;;;;;;4918197;29;20058;-82
2022/03/12 13:36:45;;;;;;;2.72;1.40;;;19.50;44.20;;;;;;4922574;29;20044;-82
2022/03/12 13:39:11;;;;;;;3.03;1.30;;;19.50;44.20;;;;;;4901522;29;20765;-81
2022/03/12 13:41:37;;;;;;;2.50;1.10;;;19.40;44.10;;;;;;4912816;29;20467;-82
2022/03/12 13:44:03;;;;;;;3.83;1.40;;;19.50;44.20;;;;;;4915389;29;20090;-81
2022/03/12 13:46:30;;;;;;;3.20;1.58;;;19.40;44.50;;;;;;4916378;29;20087;-81
2022/03/12 13:49:19;;;;;;;2.10;1.15;;;19.50;44.20;;;;;;4917358;29;20150;-78
2022/03/12 13:51:46;;;;;;;2.20;1.20;;;19.50;44.20;;;;;;4930152;29;20090;-77
2022/03/12 13:54:13;;;;;;;2.70;1.25;;;19.50;44.20;;;;;;4916811;29;20506;-77
2022/03/12 13:56:48;;;;;;;2.70;1.33;;;19.50;44.20;;;;;;4934524;29;20103;-82
2022/03/12 13:59:30;;;;;;;2.90;1.25;;;19.50;44.20;;;;;;4916284;29;20091;-81
2022/03/12 14:01:58;;;;;;;;;;;19.50;44.20;;;;;;4935363;29;20055;-81
2022/03/12 14:04:28;;;;;;;2.63;1.20;;;19.50;44.20;;;;;;4917579;29;19923;-81
2022/03/12 14:07:21;;;;;;;4.22;1.30;;;19.50;44.20;;;;;;4913376;29;20459;-82
2022/03/12 14:12:38;;;;;;;2.13;0.90;;;20.60;44.80;;;;;;4917419;29;20126;-82
2022/03/12 14:15:05;;;;;;;2.28;1.05;;;20.20;44.80;;;;;;4916676;29;20059;-82
2022/03/12 14:17:31;;;;;;;2.95;1.33;;;19.50;44.20;;;;;;4934190;29;20044;-82
2022/03/12 14:19:57;;;;;;;2.80;1.00;;;19.60;44.20;;;;;;4917354;29;20110;-81
2022/03/12 14:22:29;;;;;;;2.30;1.05;;;19.60;44.30;;;;;;4916721;29;20043;-81
2022/03/12 14:24:55;;;;;;;2.35;0.98;;;19.60;44.30;;;;;;4916997;29;20050;-81
2022/03/12 14:27:27;;;;;;;4.07;1.20;;;19.50;44.20;;;;;;4916569;29;20043;-81
2022/03/12 14:29:56;;;;;;;2.67;1.23;;;18.50;43.60;;;;;;4934200;29;20047;-82
2022/03/12 14:32:21;;;;;;;2.67;1.20;;;19.70;44.30;;;;;;4916590;29;20060;-81
2022/03/12 14:34:50;;;;;;;2.83;1.23;;;19.60;44.30;;;;;;4931812;29;20078;-79
2022/03/12 14:37:16;;;;;;;5.57;2.00;;;19.50;44.30;;;;;;4909146;29;20474;-79
2022/03/12 14:39:46;;;;;;;5.13;1.90;;;19.60;45.20;;;;;;4921592;29;20048;-79
2022/03/12 14:42:12;;;;;;;2.83;1.70;;;19.60;45.30;;;;;;4911486;29;20130;-80
2022/03/12 14:44:40;;;;;;;3.83;1.73;;;19.60;45.50;;;;;;4896648;29;20849;-79
2022/03/12 14:47:06;;;;;;;5.55;1.70;;;19.50;45.60;;;;;;4913075;29;20078;-79
2022/03/12 14:49:35;;;;;;;3.60;1.50;;;19.60;45.60;;;;;;4894717;29;20489;-80
2022/03/12 14:52:09;;;;;;;2.70;1.45;;;19.50;45.50;;;;;;4933734;29;20086;-80
2022/03/12 14:54:39;;;;;;;3.10;1.40;;;19.50;45.50;;;;;;4933636;29;20040;-79
2022/03/12 14:57:09;;;;;;;2.95;1.40;;;19.60;45.50;;;;;;4928112;29;20063;-80
2022/03/12 14:59:35;;;;;;;3.30;1.55;;;19.50;45.50;;;;;;4930696;29;20063;-80
2022/03/12 15:02:18;;;;;;;3.90;1.48;;;19.50;45.50;;;;;;4913831;29;20082;-81
2022/03/12 15:04:50;;;;;;;3.72;1.83;;;19.60;45.60;;;;;;4910515;29;20511;-80
2022/03/12 15:07:24;;;;;;;;;;;19.50;45.50;;;;;;4915348;29;20062;-81
2022/03/12 15:09:54;;;;;;;3.30;1.40;;;19.50;45.50;;;;;;4912238;29;19950;-82
2022/03/12 15:12:27;;;;;;;3.13;1.50;;;19.50;45.10;;;;;;4929570;29;20496;-81
2022/03/12 15:14:54;;;;;;;4.22;2.03;;;19.60;45.10;;;;;;4913758;29;20079;-81
2022/03/12 15:17:31;;;;;;;3.17;1.50;;;19.60;45.10;;;;;;4914873;29;20098;-81
2022/03/12 15:20:33;;;;;;;3.10;1.20;;;19.60;45.10;;;;;;4960879;23;20056;-81
2022/03/12 15:23:05;;;;;;;14.13;4.43;;;19.60;45.00;;;;;;4935441;29;20106;-81
2022/03/12 15:25:35;;;;;;;38.88;14.90;;;19.70;45.00;;;;;;4928790;29;20055;-80
2022/03/12 15:28:20;;;;;;;48.17;17.20;;;19.70;45.30;;;;;;4933058;29;20051;-81
2022/03/12 15:30:49;;;;;;;22.67;8.85;;;19.70;44.80;;;;;;4933968;29;20368;-79
2022/03/12 15:33:43;;;;;;;18.50;7.25;;;19.70;45.10;;;;;;4952142;29;20083;-79
2022/03/12 15:36:22;;;;;;;18.73;6.80;;;19.70;44.90;;;;;;4929610;29;20052;-79
2022/03/12 15:38:52;;;;;;;20.35;8.57;;;19.70;45.00;;;;;;4919938;29;20062;-79
2022/03/12 15:41:21;;;;;;;18.80;7.88;;;19.80;44.90;;;;;;4914430;29;20040;-79
2022/03/12 15:44:02;;;;;;;20.10;8.10;;;21.00;45.50;;;;;;4919923;29;20043;-80
2022/03/12 15:46:40;;;;;;;19.13;6.70;;;19.90;45.20;;;;;;4914106;29;20135;-80
2022/03/12 15:49:15;;;;;;;18.08;6.95;;;19.90;44.80;;;;;;4917042;29;20050;-80
2022/03/12 15:51:56;;;;;;;17.20;6.63;;;19.40;44.70;;;;;;4914602;29;20047;-78
2022/03/12 15:54:21;;;;;;;18.48;6.63;;;19.00;44.40;;;;;;4915769;29;20107;-80
2022/03/12 15:56:49;;;;;;;17.33;6.82;;;20.00;45.00;;;;;;4948829;29;20682;-80
2022/03/12 15:59:18;;;;;;;14.35;6.50;;;20.00;44.70;;;;;;4929528;29;20090;-80
2022/03/12 16:01:44;;;;;;;15.68;6.18;;;20.00;44.70;;;;;;4951915;29;20051;-81
2022/03/12 16:04:14;;;;;;;14.40;6.38;;;20.90;45.10;;;;;;4935057;29;20550;-83
2022/03/12 16:06:43;;;;;;;14.13;5.40;;;20.10;44.60;;;;;;4949481;29;20510;-83
2022/03/12 16:09:09;;;;;;;14.30;5.50;;;20.10;44.70;;;;;;4946150;29;20420;-84
2022/03/12 16:11:36;;;;;;;9.93;5.07;;;20.10;44.60;;;;;;4932255;29;20043;-83
2022/03/12 16:14:02;;;;;;;14.52;5.85;;;20.10;44.50;;;;;;4932234;29;20059;-83
2022/03/12 16:16:29;;;;;;;13.15;5.60;;;21.40;45.20;;;;;;4940961;29;20063;-83
2022/03/12 16:18:55;;;;;;;13.57;5.68;;;20.20;44.50;;;;;;4916031;29;20142;-83
2022/03/12 16:21:21;;;;;;;13.68;4.70;;;20.20;44.50;;;;;;4940530;29;20060;-83
2022/03/12 16:23:47;;;;;;;13.75;5.38;;;20.50;44.70;;;;;;4932674;29;20047;-83
2022/03/12 16:26:13;;;;;;;12.20;4.75;;;20.10;44.50;;;;;;4915726;29;20070;-82